sensor_id;sensor_type;location;lat;lon;timestamp;temperature;humidity
23160;DHT22;11748;50.844;4.396;2023-04-01T00:00:52;10.30;99.90
23160;DHT22;11748;50.844;4.396;2023-04-01T00:03:19;10.30;99.90
23160;DHT22;11748;50.844;4.396;2023-04-01T00:05:46;10.30;99.90
23160;DHT22;11748;50.844;4.396;2023-04-01T00:08:12;10.30;99.90
23160;DHT22;11748;50.844;4.396;2023-04-01T00:10:37;10.20;99.90
23160;DHT22;11748;50.844;4.396;2023-04-01T00:13:03;10.20;99.90
23160;DHT22;11748;50.844;4.396;2023-04-01T00:15:30;10.30;99.90
23160;DHT22;11748;50.844;4.396;2023-04-01T00:17:56;10.30;99.90
23160;DHT22;11748;50.844;4.396;2023-04-01T00:20:21;10.30;99.90
23160;DHT22;11748;50.844;4.396;2023-04-01T00:22:48;10.30;99.90
23160;DHT22;11748;50.844;4.396;2023-04-01T00:25:14;10.20;99.90
23160;DHT22;11748;50.844;4.396;2023-04-01T00:27:40;10.20;99.90
23160;DHT22;11748;50.844;4.396;2023-04-01T00:30:07;10.30;99.90
23160;DHT22;11748;50.844;4.396;2023-04-01T00:32:34;10.30;99.90
23160;DHT22;11748;50.844;4.396;2023-04-01T00:35:00;10.30;99.90
23160;DHT22;11748;50.844;4.396;2023-04-01T00:37:27;10.30;99.90
23160;DHT22;11748;50.844;4.396;2023-04-01T00:39:52;10.30;99.90
23160;DHT22;11748;50.844;4.396;2023-04-01T00:42:18;10.20;99.90
23160;DHT22;11748;50.844;4.396;2023-04-01T00:44:49;10.30;99.90
23160;DHT22;11748;50.844;4.396;2023-04-01T00:47:15;10.20;99.90
23160;DHT22;11748;50.844;4.396;2023-04-01T00:49:45;10.30;99.90
23160;DHT22;11748;50.844;4.396;2023-04-01T00:52:13;10.30;99.90
23160;DHT22;11748;50.844;4.396;2023-04-01T00:54:41;10.30;99.90
23160;DHT22;11748;50.844;4.396;2023-04-01T00:57:32;10.30;99.90
23160;DHT22;11748;50.844;4.396;2023-04-01T01:00:00;10.30;99.90
23160;DHT22;11748;50.844;4.396;2023-04-01T01:02:27;10.40;99.90
23160;DHT22;11748;50.844;4.396;2023-04-01T01:04:52;10.40;99.90
23160;DHT22;11748;50.844;4.396;2023-04-01T01:10:18;10.40;99.90
23160;DHT22;11748;50.844;4.396;2023-04-01T01:15:57;10.40;99.90
23160;DHT22;11748;50.844;4.396;2023-04-01T01:21:46;10.40;99.90
23160;DHT22;11748;50.844;4.396;2023-04-01T01:27:20;10.20;99.90
23160;DHT22;11748;50.844;4.396;2023-04-01T01:35:38;10.30;99.90
23160;DHT22;11748;50.844;4.396;2023-04-01T01:38:14;10.40;99.90
23160;DHT22;11748;50.844;4.396;2023-04-01T01:40:46;10.50;99.90
23160;DHT22;11748;50.844;4.396;2023-04-01T01:43:16;10.40;99.90
23160;DHT22;11748;50.844;4.396;2023-04-01T01:45:47;10.60;99.90
23160;DHT22;11748;50.844;4.396;2023-04-01T01:48:15;10.60;99.90
23160;DHT22;11748;50.844;4.396;2023-04-01T01:50:43;10.70;99.90
23160;DHT22;11748;50.844;4.396;2023-04-01T01:53:12;10.60;99.90
23160;DHT22;11748;50.844;4.396;2023-04-01T01:55:40;10.60;99.90
23160;DHT22;11748;50.844;4.396;2023-04-01T02:00:44;10.60;99.90
23160;DHT22;11748;50.844;4.396;2023-04-01T02:03:12;10.50;99.90
23160;DHT22;11748;50.844;4.396;2023-04-01T02:05:39;10.50;99.90
23160;DHT22;11748;50.844;4.396;2023-04-01T02:08:14;10.50;99.90
23160;DHT22;11748;50.844;4.396;2023-04-01T02:10:46;10.60;99.90
23160;DHT22;11748;50.844;4.396;2023-04-01T02:13:24;10.60;99.90
23160;DHT22;11748;50.844;4.396;2023-04-01T02:15:53;10.50;99.90
23160;DHT22;11748;50.844;4.396;2023-04-01T02:18:22;10.50;99.90
23160;DHT22;11748;50.844;4.396;2023-04-01T02:20:49;10.50;99.90
23160;DHT22;11748;50.844;4.396;2023-04-01T02:23:15;10.50;99.90
23160;DHT22;11748;50.844;4.396;2023-04-01T02:25:43;10.60;99.90
23160;DHT22;11748;50.844;4.396;2023-04-01T02:28:09;10.50;99.90
23160;DHT22;11748;50.844;4.396;2023-04-01T02:30:37;10.40;99.90
23160;DHT22;11748;50.844;4.396;2023-04-01T02:33:05;10.50;99.90
23160;DHT22;11748;50.844;4.396;2023-04-01T02:35:34;10.40;99.90
23160;DHT22;11748;50.844;4.396;2023-04-01T02:38:01;10.40;99.90
23160;DHT22;11748;50.844;4.396;2023-04-01T02:40:27;10.40;99.90
23160;DHT22;11748;50.844;4.396;2023-04-01T02:42:53;10.30;99.90
23160;DHT22;11748;50.844;4.396;2023-04-01T02:45:18;10.30;99.90
23160;DHT22;11748;50.844;4.396;2023-04-01T02:47:44;10.30;99.90
23160;DHT22;11748;50.844;4.396;2023-04-01T02:50:10;10.40;99.90
23160;DHT22;11748;50.844;4.396;2023-04-01T02:52:36;10.50;99.90
23160;DHT22;11748;50.844;4.396;2023-04-01T02:55:02;10.50;99.90
23160;DHT22;11748;50.844;4.396;2023-04-01T02:57:28;10.50;99.90
23160;DHT22;11748;50.844;4.396;2023-04-01T02:59:55;10.40;99.90
23160;DHT22;11748;50.844;4.396;2023-04-01T03:02:20;10.50;99.90
23160;DHT22;11748;50.844;4.396;2023-04-01T03:04:46;10.60;99.90
23160;DHT22;11748;50.844;4.396;2023-04-01T03:07:12;10.50;99.90
23160;DHT22;11748;50.844;4.396;2023-04-01T03:09:38;10.50;99.90
23160;DHT22;11748;50.844;4.396;2023-04-01T03:12:04;10.40;99.90
23160;DHT22;11748;50.844;4.396;2023-04-01T03:14:30;10.40;99.90
23160;DHT22;11748;50.844;4.396;2023-04-01T03:16:55;10.40;99.90
23160;DHT22;11748;50.844;4.396;2023-04-01T03:19:21;10.40;99.90
23160;DHT22;11748;50.844;4.396;2023-04-01T03:21:47;10.50;99.90
23160;DHT22;11748;50.844;4.396;2023-04-01T03:24:12;10.40;99.90
23160;DHT22;11748;50.844;4.396;2023-04-01T03:26:38;10.40;99.90
23160;DHT22;11748;50.844;4.396;2023-04-01T03:29:04;10.40;99.90
23160;DHT22;11748;50.844;4.396;2023-04-01T03:31:30;10.30;99.90
23160;DHT22;11748;50.844;4.396;2023-04-01T03:33:55;10.40;99.90
23160;DHT22;11748;50.844;4.396;2023-04-01T03:36:21;10.30;99.90
23160;DHT22;11748;50.844;4.396;2023-04-01T03:38:47;10.20;99.90
23160;DHT22;11748;50.844;4.396;2023-04-01T03:41:14;10.30;99.90
23160;DHT22;11748;50.844;4.396;2023-04-01T03:43:41;10.30;99.90
23160;DHT22;11748;50.844;4.396;2023-04-01T03:46:06;10.40;99.90
23160;DHT22;11748;50.844;4.396;2023-04-01T03:48:32;10.40;99.90
23160;DHT22;11748;50.844;4.396;2023-04-01T03:50:58;10.50;99.90
23160;DHT22;11748;50.844;4.396;2023-04-01T03:53:24;10.50;99.90
23160;DHT22;11748;50.844;4.396;2023-04-01T03:55:50;10.60;99.90
23160;DHT22;11748;50.844;4.396;2023-04-01T03:58:17;10.60;99.90
23160;DHT22;11748;50.844;4.396;2023-04-01T04:00:43;10.50;99.90
23160;DHT22;11748;50.844;4.396;2023-04-01T04:03:08;10.60;99.90
23160;DHT22;11748;50.844;4.396;2023-04-01T04:05:34;10.60;99.90
23160;DHT22;11748;50.844;4.396;2023-04-01T04:08:00;10.70;99.90
23160;DHT22;11748;50.844;4.396;2023-04-01T04:10:26;10.60;99.90
23160;DHT22;11748;50.844;4.396;2023-04-01T04:12:52;10.60;99.90
23160;DHT22;11748;50.844;4.396;2023-04-01T04:15:18;10.60;99.90
23160;DHT22;11748;50.844;4.396;2023-04-01T04:17:45;10.60;99.90
23160;DHT22;11748;50.844;4.396;2023-04-01T04:20:11;10.50;99.90
23160;DHT22;11748;50.844;4.396;2023-04-01T04:22:37;10.60;99.90
23160;DHT22;11748;50.844;4.396;2023-04-01T04:25:03;10.60;99.90
23160;DHT22;11748;50.844;4.396;2023-04-01T04:27:28;10.60;99.90
23160;DHT22;11748;50.844;4.396;2023-04-01T04:29:54;10.60;99.90
23160;DHT22;11748;50.844;4.396;2023-04-01T04:32:20;10.60;99.90
23160;DHT22;11748;50.844;4.396;2023-04-01T04:34:46;10.60;99.90
23160;DHT22;11748;50.844;4.396;2023-04-01T04:37:11;10.50;99.90
23160;DHT22;11748;50.844;4.396;2023-04-01T04:39:37;10.50;99.90
23160;DHT22;11748;50.844;4.396;2023-04-01T04:42:03;10.40;99.90
23160;DHT22;11748;50.844;4.396;2023-04-01T04:44:28;10.30;99.90
23160;DHT22;11748;50.844;4.396;2023-04-01T04:46:54;10.40;99.90
23160;DHT22;11748;50.844;4.396;2023-04-01T04:49:20;10.50;99.90
23160;DHT22;11748;50.844;4.396;2023-04-01T04:51:46;10.50;99.90
23160;DHT22;11748;50.844;4.396;2023-04-01T04:54:12;10.40;99.90
23160;DHT22;11748;50.844;4.396;2023-04-01T04:56:38;10.50;99.90
23160;DHT22;11748;50.844;4.396;2023-04-01T04:59:03;10.60;99.90
23160;DHT22;11748;50.844;4.396;2023-04-01T05:01:29;10.70;99.90
23160;DHT22;11748;50.844;4.396;2023-04-01T05:03:55;10.70;99.90
23160;DHT22;11748;50.844;4.396;2023-04-01T05:06:21;10.70;99.90
23160;DHT22;11748;50.844;4.396;2023-04-01T05:08:47;10.50;99.90
23160;DHT22;11748;50.844;4.396;2023-04-01T05:11:18;10.30;99.90
23160;DHT22;11748;50.844;4.396;2023-04-01T05:13:44;10.40;99.90
23160;DHT22;11748;50.844;4.396;2023-04-01T05:16:15;10.30;99.90
23160;DHT22;11748;50.844;4.396;2023-04-01T05:18:42;10.40;99.90
23160;DHT22;11748;50.844;4.396;2023-04-01T05:21:10;10.30;99.90
23160;DHT22;11748;50.844;4.396;2023-04-01T05:23:36;10.30;99.90
23160;DHT22;11748;50.844;4.396;2023-04-01T05:26:06;10.20;99.90
23160;DHT22;11748;50.844;4.396;2023-04-01T05:28:32;10.10;99.90
23160;DHT22;11748;50.844;4.396;2023-04-01T05:30:59;10.10;99.90
23160;DHT22;11748;50.844;4.396;2023-04-01T05:33:26;10.10;99.90
23160;DHT22;11748;50.844;4.396;2023-04-01T05:35:52;10.10;99.90
23160;DHT22;11748;50.844;4.396;2023-04-01T05:38:18;10.10;99.90
23160;DHT22;11748;50.844;4.396;2023-04-01T05:40:43;10.10;99.90
23160;DHT22;11748;50.844;4.396;2023-04-01T05:43:10;10.10;99.90
23160;DHT22;11748;50.844;4.396;2023-04-01T05:45:35;10.30;99.90
23160;DHT22;11748;50.844;4.396;2023-04-01T05:48:02;10.30;99.90
23160;DHT22;11748;50.844;4.396;2023-04-01T05:50:28;10.30;99.90
23160;DHT22;11748;50.844;4.396;2023-04-01T05:52:54;10.30;99.90
23160;DHT22;11748;50.844;4.396;2023-04-01T05:55:20;10.30;99.90
23160;DHT22;11748;50.844;4.396;2023-04-01T05:57:46;10.30;99.90
23160;DHT22;11748;50.844;4.396;2023-04-01T06:00:14;10.20;99.90
23160;DHT22;11748;50.844;4.396;2023-04-01T06:02:40;10.20;99.90
23160;DHT22;11748;50.844;4.396;2023-04-01T06:05:21;10.10;99.90
23160;DHT22;11748;50.844;4.396;2023-04-01T06:07:47;10.10;99.90
23160;DHT22;11748;50.844;4.396;2023-04-01T06:10:18;10.10;99.90
23160;DHT22;11748;50.844;4.396;2023-04-01T06:13:03;10.30;99.90
23160;DHT22;11748;50.844;4.396;2023-04-01T06:31:40;10.10;99.90
23160;DHT22;11748;50.844;4.396;2023-04-01T06:34:47;10.10;99.90
23160;DHT22;11748;50.844;4.396;2023-04-01T06:40:53;10.20;99.90
23160;DHT22;11748;50.844;4.396;2023-04-01T06:43:22;10.30;99.90
23160;DHT22;11748;50.844;4.396;2023-04-01T06:54:20;10.30;99.90
23160;DHT22;11748;50.844;4.396;2023-04-01T06:56:51;10.40;99.90
23160;DHT22;11748;50.844;4.396;2023-04-01T06:59:37;10.30;99.90
23160;DHT22;11748;50.844;4.396;2023-04-01T07:02:29;10.30;99.90
23160;DHT22;11748;50.844;4.396;2023-04-01T07:04:58;10.20;99.90
23160;DHT22;11748;50.844;4.396;2023-04-01T07:07:46;10.40;99.90
23160;DHT22;11748;50.844;4.396;2023-04-01T07:11:15;10.50;99.90
23160;DHT22;11748;50.844;4.396;2023-04-01T07:13:20;10.40;99.90
23160;DHT22;11748;50.844;4.396;2023-04-01T07:16:17;10.40;99.90
23160;DHT22;11748;50.844;4.396;2023-04-01T07:18:50;10.30;99.90
23160;DHT22;11748;50.844;4.396;2023-04-01T07:21:31;10.30;99.90
23160;DHT22;11748;50.844;4.396;2023-04-01T07:24:05;10.30;99.90
23160;DHT22;11748;50.844;4.396;2023-04-01T07:26:32;10.30;99.90
23160;DHT22;11748;50.844;4.396;2023-04-01T07:28:57;10.30;99.90
23160;DHT22;11748;50.844;4.396;2023-04-01T07:31:37;10.20;99.90
23160;DHT22;11748;50.844;4.396;2023-04-01T07:34:45;10.30;99.90
23160;DHT22;11748;50.844;4.396;2023-04-01T07:37:31;10.40;99.90
23160;DHT22;11748;50.844;4.396;2023-04-01T07:43:53;10.40;99.90
23160;DHT22;11748;50.844;4.396;2023-04-01T07:52:04;10.30;99.90
23160;DHT22;11748;50.844;4.396;2023-04-01T07:54:52;10.30;99.90
23160;DHT22;11748;50.844;4.396;2023-04-01T07:57:43;10.50;99.90
23160;DHT22;11748;50.844;4.396;2023-04-01T08:00:30;10.40;99.90
23160;DHT22;11748;50.844;4.396;2023-04-01T08:06:32;10.30;99.90
23160;DHT22;11748;50.844;4.396;2023-04-01T08:11:40;10.30;99.90
23160;DHT22;11748;50.844;4.396;2023-04-01T08:14:19;10.40;99.90
23160;DHT22;11748;50.844;4.396;2023-04-01T08:22:30;10.60;99.90
23160;DHT22;11748;50.844;4.396;2023-04-01T08:25:02;10.60;99.90
23160;DHT22;11748;50.844;4.396;2023-04-01T08:27:37;10.60;99.90
23160;DHT22;11748;50.844;4.396;2023-04-01T08:30:25;10.50;99.90
23160;DHT22;11748;50.844;4.396;2023-04-01T08:33:16;10.50;99.90
23160;DHT22;11748;50.844;4.396;2023-04-01T08:35:54;10.60;99.90
23160;DHT22;11748;50.844;4.396;2023-04-01T08:38:34;10.70;99.90
23160;DHT22;11748;50.844;4.396;2023-04-01T08:46:56;10.70;99.90
23160;DHT22;11748;50.844;4.396;2023-04-01T09:00:33;10.70;99.90
23160;DHT22;11748;50.844;4.396;2023-04-01T09:11:03;10.40;99.90
23160;DHT22;11748;50.844;4.396;2023-04-01T09:16:13;10.40;99.90
23160;DHT22;11748;50.844;4.396;2023-04-01T09:19:07;10.30;99.90
23160;DHT22;11748;50.844;4.396;2023-04-01T09:26:53;10.40;99.90
23160;DHT22;11748;50.844;4.396;2023-04-01T09:29:49;10.50;99.90
23160;DHT22;11748;50.844;4.396;2023-04-01T09:35:25;10.60;99.90
23160;DHT22;11748;50.844;4.396;2023-04-01T09:54:36;10.80;99.90
23160;DHT22;11748;50.844;4.396;2023-04-01T10:14:41;11.00;99.90
23160;DHT22;11748;50.844;4.396;2023-04-01T10:20:08;10.80;99.90
23160;DHT22;11748;50.844;4.396;2023-04-01T10:23:19;11.00;99.90
23160;DHT22;11748;50.844;4.396;2023-04-01T10:26:23;11.00;99.90
23160;DHT22;11748;50.844;4.396;2023-04-01T10:54:26;11.50;99.90
23160;DHT22;11748;50.844;4.396;2023-04-01T11:05:52;11.70;99.90
23160;DHT22;11748;50.844;4.396;2023-04-01T11:33:39;12.50;99.90
23160;DHT22;11748;50.844;4.396;2023-04-01T11:44:46;11.70;99.90
23160;DHT22;11748;50.844;4.396;2023-04-01T11:47:48;11.80;99.90
23160;DHT22;11748;50.844;4.396;2023-04-01T12:10:18;11.70;99.90
23160;DHT22;11748;50.844;4.396;2023-04-01T12:13:02;11.70;99.90
23160;DHT22;11748;50.844;4.396;2023-04-01T12:20:57;12.30;99.90
23160;DHT22;11748;50.844;4.396;2023-04-01T12:41:03;11.50;99.90
23160;DHT22;11748;50.844;4.396;2023-04-01T12:49:02;11.50;99.90
23160;DHT22;11748;50.844;4.396;2023-04-01T12:57:10;11.10;99.90
23160;DHT22;11748;50.844;4.396;2023-04-01T13:05:44;11.30;99.90
23160;DHT22;11748;50.844;4.396;2023-04-01T13:11:08;11.30;99.90
23160;DHT22;11748;50.844;4.396;2023-04-01T13:16:20;11.20;99.90
23160;DHT22;11748;50.844;4.396;2023-04-01T13:27:14;11.40;99.90
23160;DHT22;11748;50.844;4.396;2023-04-01T13:37:51;11.30;99.90
23160;DHT22;11748;50.844;4.396;2023-04-01T13:53:52;11.30;99.90
23160;DHT22;11748;50.844;4.396;2023-04-01T13:56:37;11.30;99.90
23160;DHT22;11748;50.844;4.396;2023-04-01T14:04:34;11.20;99.90
23160;DHT22;11748;50.844;4.396;2023-04-01T14:10:15;11.10;99.90
23160;DHT22;11748;50.844;4.396;2023-04-01T14:12:57;11.20;99.90
23160;DHT22;11748;50.844;4.396;2023-04-01T14:35:16;11.90;99.90
23160;DHT22;11748;50.844;4.396;2023-04-01T14:43:13;11.90;99.90
23160;DHT22;11748;50.844;4.396;2023-04-01T14:48:38;12.00;99.90
23160;DHT22;11748;50.844;4.396;2023-04-01T14:54:03;11.70;99.90
23160;DHT22;11748;50.844;4.396;2023-04-01T14:56:41;11.50;99.90
23160;DHT22;11748;50.844;4.396;2023-04-01T15:07:24;11.30;99.90
23160;DHT22;11748;50.844;4.396;2023-04-01T15:29:13;11.50;99.90
23160;DHT22;11748;50.844;4.396;2023-04-01T15:41:24;11.40;99.90
23160;DHT22;11748;50.844;4.396;2023-04-01T15:43:54;11.30;99.90
23160;DHT22;11748;50.844;4.396;2023-04-01T15:51:54;11.20;99.90
23160;DHT22;11748;50.844;4.396;2023-04-01T16:19:52;10.70;99.90
23160;DHT22;11748;50.844;4.396;2023-04-01T16:33:21;10.80;99.90
23160;DHT22;11748;50.844;4.396;2023-04-01T16:35:59;10.80;99.90
23160;DHT22;11748;50.844;4.396;2023-04-01T16:38:47;10.90;99.90
23160;DHT22;11748;50.844;4.396;2023-04-01T16:42:13;10.80;99.90
23160;DHT22;11748;50.844;4.396;2023-04-01T16:44:27;10.60;99.90
23160;DHT22;11748;50.844;4.396;2023-04-01T16:47:04;10.50;99.90
23160;DHT22;11748;50.844;4.396;2023-04-01T16:55:01;10.40;99.90
23160;DHT22;11748;50.844;4.396;2023-04-01T16:57:51;10.30;99.90
23160;DHT22;11748;50.844;4.396;2023-04-01T17:00:27;10.40;99.90
23160;DHT22;11748;50.844;4.396;2023-04-01T17:03:20;10.40;99.90
23160;DHT22;11748;50.844;4.396;2023-04-01T17:05:55;10.40;99.90
23160;DHT22;11748;50.844;4.396;2023-04-01T17:13:38;10.30;99.90
23160;DHT22;11748;50.844;4.396;2023-04-01T17:16:43;10.30;99.90
23160;DHT22;11748;50.844;4.396;2023-04-01T17:27:13;10.40;99.90
23160;DHT22;11748;50.844;4.396;2023-04-01T17:33:07;10.30;99.90
23160;DHT22;11748;50.844;4.396;2023-04-01T17:41:24;10.40;99.90
23160;DHT22;11748;50.844;4.396;2023-04-01T17:49:49;10.30;99.90
23160;DHT22;11748;50.844;4.396;2023-04-01T17:52:32;10.30;99.90
23160;DHT22;11748;50.844;4.396;2023-04-01T17:58:08;10.20;99.90
23160;DHT22;11748;50.844;4.396;2023-04-01T18:03:57;10.20;99.90
23160;DHT22;11748;50.844;4.396;2023-04-01T18:09:31;10.20;99.90
23160;DHT22;11748;50.844;4.396;2023-04-01T18:20:24;10.20;99.90
23160;DHT22;11748;50.844;4.396;2023-04-01T18:25:48;10.00;99.90
23160;DHT22;11748;50.844;4.396;2023-04-01T18:28:33;10.10;99.90
23160;DHT22;11748;50.844;4.396;2023-04-01T18:39:18;10.10;99.90
23160;DHT22;11748;50.844;4.396;2023-04-01T18:44:54;10.00;99.90
23160;DHT22;11748;50.844;4.396;2023-04-01T18:47:47;10.00;99.90
23160;DHT22;11748;50.844;4.396;2023-04-01T18:52:44;10.00;99.90
23160;DHT22;11748;50.844;4.396;2023-04-01T18:55:37;10.00;99.90
23160;DHT22;11748;50.844;4.396;2023-04-01T18:58:18;10.00;99.90
23160;DHT22;11748;50.844;4.396;2023-04-01T19:04:07;10.00;99.90
23160;DHT22;11748;50.844;4.396;2023-04-01T19:06:51;10.10;99.90
23160;DHT22;11748;50.844;4.396;2023-04-01T19:09:20;10.10;99.90
23160;DHT22;11748;50.844;4.396;2023-04-01T19:17:09;10.10;99.90
23160;DHT22;11748;50.844;4.396;2023-04-01T19:27:52;9.90;99.90
23160;DHT22;11748;50.844;4.396;2023-04-01T19:36:03;10.10;99.90
23160;DHT22;11748;50.844;4.396;2023-04-01T19:38:41;10.00;99.90
23160;DHT22;11748;50.844;4.396;2023-04-01T19:46:53;9.80;99.90
23160;DHT22;11748;50.844;4.396;2023-04-01T19:57:07;9.60;99.90
23160;DHT22;11748;50.844;4.396;2023-04-01T20:02:29;9.60;99.90
23160;DHT22;11748;50.844;4.396;2023-04-01T20:04:56;9.60;99.90
23160;DHT22;11748;50.844;4.396;2023-04-01T20:07:31;9.60;99.90
23160;DHT22;11748;50.844;4.396;2023-04-01T20:10:07;9.70;99.90
23160;DHT22;11748;50.844;4.396;2023-04-01T20:12:44;9.70;99.90
23160;DHT22;11748;50.844;4.396;2023-04-01T20:18:16;9.80;99.90
23160;DHT22;11748;50.844;4.396;2023-04-01T20:20:57;9.90;99.90
23160;DHT22;11748;50.844;4.396;2023-04-01T20:23:55;9.80;99.90
23160;DHT22;11748;50.844;4.396;2023-04-01T20:26:28;9.80;99.90
23160;DHT22;11748;50.844;4.396;2023-04-01T20:40:50;9.80;99.90
23160;DHT22;11748;50.844;4.396;2023-04-01T20:51:07;9.80;99.90
23160;DHT22;11748;50.844;4.396;2023-04-01T20:53:49;9.80;99.90
23160;DHT22;11748;50.844;4.396;2023-04-01T21:12:24;9.80;99.90
23160;DHT22;11748;50.844;4.396;2023-04-01T21:20:54;9.90;99.90
23160;DHT22;11748;50.844;4.396;2023-04-01T21:43:01;10.10;99.90
23160;DHT22;11748;50.844;4.396;2023-04-01T21:56:54;10.10;99.90
23160;DHT22;11748;50.844;4.396;2023-04-01T22:07:17;10.30;99.90
23160;DHT22;11748;50.844;4.396;2023-04-01T22:10:20;10.20;99.90
23160;DHT22;11748;50.844;4.396;2023-04-01T22:13:01;10.20;99.90
23160;DHT22;11748;50.844;4.396;2023-04-01T22:18:31;10.20;99.90
23160;DHT22;11748;50.844;4.396;2023-04-01T22:24:45;10.20;99.90
23160;DHT22;11748;50.844;4.396;2023-04-01T22:30:14;10.20;99.90
23160;DHT22;11748;50.844;4.396;2023-04-01T22:32:48;10.20;99.90
23160;DHT22;11748;50.844;4.396;2023-04-01T22:37:58;10.20;99.90
23160;DHT22;11748;50.844;4.396;2023-04-01T22:40:47;10.10;99.90
23160;DHT22;11748;50.844;4.396;2023-04-01T22:43:33;9.90;99.90
23160;DHT22;11748;50.844;4.396;2023-04-01T22:49:37;10.10;99.90
23160;DHT22;11748;50.844;4.396;2023-04-01T22:51:43;10.00;99.90
23160;DHT22;11748;50.844;4.396;2023-04-01T22:54:28;10.00;99.90
23160;DHT22;11748;50.844;4.396;2023-04-01T22:57:05;10.00;99.90
23160;DHT22;11748;50.844;4.396;2023-04-01T23:02:24;10.00;99.90
23160;DHT22;11748;50.844;4.396;2023-04-01T23:04:57;10.00;99.90
23160;DHT22;11748;50.844;4.396;2023-04-01T23:10:28;10.10;99.90
23160;DHT22;11748;50.844;4.396;2023-04-01T23:12:59;10.20;99.90
23160;DHT22;11748;50.844;4.396;2023-04-01T23:15:27;10.10;99.90
23160;DHT22;11748;50.844;4.396;2023-04-01T23:26:07;9.90;99.90
23160;DHT22;11748;50.844;4.396;2023-04-01T23:28:55;9.80;99.90
23160;DHT22;11748;50.844;4.396;2023-04-01T23:31:32;9.90;99.90
23160;DHT22;11748;50.844;4.396;2023-04-01T23:36:42;9.80;99.90
23160;DHT22;11748;50.844;4.396;2023-04-01T23:39:35;9.90;99.90
23160;DHT22;11748;50.844;4.396;2023-04-01T23:42:07;9.70;99.90
23160;DHT22;11748;50.844;4.396;2023-04-01T23:44:38;9.60;99.90
23160;DHT22;11748;50.844;4.396;2023-04-01T23:47:06;9.60;99.90
23160;DHT22;11748;50.844;4.396;2023-04-01T23:49:40;9.60;99.90
23160;DHT22;11748;50.844;4.396;2023-04-01T23:52:35;9.60;99.90
23160;DHT22;11748;50.844;4.396;2023-04-01T23:57:36;9.60;99.90
